createdAt,value
2024-01-19T00:00:18.797Z,53.57
2024-01-19T00:01:18.787Z,53.06
2024-01-19T00:02:19.235Z,56.13
2024-01-19T00:03:18.842Z,52.75
2024-01-19T00:04:18.773Z,54.42
2024-01-19T00:05:18.889Z,56.70
2024-01-19T00:06:18.814Z,58.84
2024-01-19T00:07:18.818Z,52.95
2024-01-19T00:08:18.809Z,56.20
2024-01-19T00:09:18.793Z,54.88
2024-01-19T00:10:18.776Z,52.67
2024-01-19T00:11:18.807Z,53.16
2024-01-19T00:12:18.782Z,55.04
2024-01-19T00:13:18.784Z,54.94
2024-01-19T00:14:18.802Z,60.28
2024-01-19T00:15:21.217Z,55.43
2024-01-19T00:16:19.793Z,55.45
2024-01-19T00:17:18.814Z,54.07
2024-01-19T00:18:18.849Z,52.91
2024-01-19T00:19:18.810Z,55.57
2024-01-19T00:20:18.809Z,52.31
2024-01-19T00:21:18.797Z,56.19
2024-01-19T00:22:18.786Z,54.05
2024-01-19T00:23:18.805Z,53.96
2024-01-19T00:24:18.824Z,51.92
2024-01-19T00:25:18.789Z,53.81
2024-01-19T00:26:18.885Z,52.94
2024-01-19T00:27:18.798Z,53.20
2024-01-19T00:28:18.789Z,51.15
2024-01-19T00:29:18.862Z,53.72
2024-01-19T00:30:18.786Z,56.96
2024-01-19T00:31:18.798Z,59.98
2024-01-19T00:32:18.912Z,56.62
2024-01-19T00:33:18.891Z,57.71
2024-01-19T00:34:18.835Z,57.32
2024-01-19T00:35:21.548Z,56.45
2024-01-19T00:36:18.808Z,53.19
2024-01-19T00:37:18.797Z,55.73
2024-01-19T00:38:18.896Z,55.04
2024-01-19T00:39:18.803Z,55.53
2024-01-19T00:40:18.809Z,52.90
2024-01-19T00:41:18.846Z,55.46
2024-01-19T00:42:18.812Z,53.63
2024-01-19T00:43:18.804Z,56.91
2024-01-19T00:44:18.831Z,56.31
2024-01-19T00:45:18.831Z,58.98
2024-01-19T00:46:18.811Z,57.25
2024-01-19T00:47:18.828Z,55.34
2024-01-19T00:48:18.979Z,57.60
2024-01-19T00:49:18.841Z,51.79
2024-01-19T00:50:18.830Z,56.71
2024-01-19T00:51:18.803Z,54.51
2024-01-19T00:52:18.810Z,57.02
2024-01-19T00:53:18.834Z,54.60
2024-01-19T00:54:18.823Z,50.96
2024-01-19T00:55:18.806Z,57.90
2024-01-19T00:56:18.965Z,55.92
2024-01-19T00:57:18.816Z,54.03
2024-01-19T00:58:18.797Z,53.19
2024-01-19T00:59:18.858Z,51.10
2024-01-19T01:00:18.817Z,56.87
2024-01-19T01:01:18.804Z,52.91
2024-01-19T01:02:18.830Z,56.95
2024-01-19T01:03:18.816Z,56.12
2024-01-19T01:04:18.862Z,57.31
2024-01-19T01:05:18.931Z,54.96
2024-01-19T01:06:18.918Z,53.21
2024-01-19T01:07:18.814Z,58.19
2024-01-19T01:08:18.838Z,53.99
2024-01-19T01:09:18.809Z,59.61
2024-01-19T01:10:18.811Z,54.77
2024-01-19T01:11:18.883Z,57.79
2024-01-19T01:12:18.805Z,61.18
2024-01-19T01:13:18.811Z,60.67
2024-01-19T01:14:18.852Z,57.71
2024-01-19T01:15:18.835Z,55.57
2024-01-19T01:16:18.825Z,56.66
2024-01-19T01:17:18.836Z,53.35
2024-01-19T01:18:18.928Z,55.61
2024-01-19T01:19:18.818Z,54.14
2024-01-19T01:20:18.841Z,56.18
2024-01-19T01:21:18.818Z,52.31
2024-01-19T01:22:18.826Z,58.55
2024-01-19T01:23:18.892Z,56.31
2024-01-19T01:24:18.824Z,54.96
2024-01-19T01:25:18.829Z,53.80
2024-01-19T01:26:18.900Z,50.00
2024-01-19T01:27:18.838Z,59.27
2024-01-19T01:28:18.838Z,53.00
2024-01-19T01:29:18.881Z,55.84
2024-01-19T01:30:18.836Z,52.60
2024-01-19T01:31:18.856Z,52.06
2024-01-19T01:32:18.927Z,53.89
2024-01-19T01:33:19.022Z,49.89
2024-01-19T01:34:18.908Z,52.01
2024-01-19T01:35:18.929Z,56.00
2024-01-19T01:36:18.867Z,56.79
2024-01-19T01:37:18.840Z,54.01
2024-01-19T01:38:18.872Z,55.26
2024-01-19T01:39:18.947Z,52.01
2024-01-19T01:40:18.834Z,56.53
2024-01-19T01:41:18.932Z,55.39
2024-01-19T01:42:18.848Z,54.16
2024-01-19T01:43:18.855Z,53.34
2024-01-19T01:44:18.891Z,56.65
2024-01-19T01:45:18.875Z,57.38
2024-01-19T01:46:18.842Z,53.93
2024-01-19T01:47:18.938Z,58.72
2024-01-19T01:48:19.089Z,60.08
2024-01-19T01:49:19.143Z,59.49
2024-01-19T01:50:18.997Z,57.65
2024-01-19T01:51:18.871Z,56.09
2024-01-19T01:52:18.854Z,54.63
2024-01-19T01:53:18.932Z,53.82
2024-01-19T01:54:18.877Z,52.17
2024-01-19T01:55:18.851Z,56.63
2024-01-19T01:56:18.902Z,55.24
2024-01-19T01:57:18.869Z,56.30
2024-01-19T01:58:18.865Z,54.16
2024-01-19T01:59:18.953Z,50.57
2024-01-19T02:00:18.913Z,56.07
2024-01-19T02:01:18.862Z,56.14
2024-01-19T02:02:18.921Z,57.74
2024-01-19T02:03:18.852Z,51.87
2024-01-19T02:04:18.868Z,55.70
2024-01-19T02:05:19.015Z,55.50
2024-01-19T02:06:19.038Z,53.61
2024-01-19T02:07:19.337Z,57.41
2024-01-19T02:08:19.113Z,57.29
2024-01-19T02:09:18.927Z,55.90
2024-01-19T02:10:18.886Z,55.00
2024-01-19T02:11:18.988Z,55.01
2024-01-19T02:12:18.885Z,52.26
2024-01-19T02:13:18.884Z,56.99
2024-01-19T02:14:18.943Z,55.83
2024-01-19T02:15:18.878Z,55.50
2024-01-19T02:16:18.881Z,58.24
2024-01-19T02:17:18.959Z,55.96
2024-01-19T02:18:19.158Z,56.92
2024-01-19T02:19:18.986Z,54.74
2024-01-19T02:20:18.970Z,56.66
2024-01-19T02:21:18.881Z,55.62
2024-01-19T02:22:18.875Z,50.50
2024-01-19T02:23:18.935Z,55.54
2024-01-19T02:24:18.874Z,54.05
2024-01-19T02:25:18.883Z,59.92
2024-01-19T02:26:19.000Z,56.57
2024-01-19T02:27:18.899Z,56.21
2024-01-19T02:28:18.882Z,60.62
2024-01-19T02:29:18.913Z,57.13
2024-01-19T02:30:18.900Z,51.59
2024-01-19T02:31:19.272Z,54.65
2024-01-19T02:32:18.938Z,54.70
2024-01-19T02:33:19.047Z,57.55
2024-01-19T02:34:18.935Z,56.25
2024-01-19T02:35:18.965Z,57.68
2024-01-19T02:36:18.947Z,53.88
2024-01-19T02:37:18.980Z,55.24
2024-01-19T02:38:19.024Z,57.34
2024-01-19T02:39:19.006Z,57.19
2024-01-19T02:40:19.026Z,54.48
2024-01-19T02:41:19.060Z,54.28
2024-01-19T02:42:19.065Z,52.70
2024-01-19T02:43:19.089Z,56.74
2024-01-19T02:44:19.128Z,57.41
2024-01-19T02:45:19.140Z,57.52
2024-01-19T02:46:19.175Z,56.72
2024-01-19T02:47:19.222Z,55.99
2024-01-19T02:48:19.336Z,56.72
2024-01-19T02:49:19.272Z,56.04
2024-01-19T02:50:19.275Z,52.33
2024-01-19T02:51:19.290Z,55.44
2024-01-19T02:52:19.297Z,51.54
2024-01-19T02:53:19.333Z,51.50
2024-01-19T02:54:19.346Z,54.81
2024-01-19T02:55:19.387Z,59.78
2024-01-19T02:56:19.440Z,57.38
2024-01-19T02:57:19.427Z,57.09
2024-01-19T02:58:19.427Z,54.55
2024-01-19T02:59:19.461Z,56.71
2024-01-19T03:00:19.487Z,56.83
2024-01-19T03:01:19.570Z,55.09
2024-01-19T03:02:19.576Z,59.89
2024-01-19T03:03:19.550Z,58.59
2024-01-19T03:04:19.592Z,56.97
2024-01-19T03:05:19.616Z,54.66
2024-01-19T03:06:19.688Z,57.77
2024-01-19T03:07:19.656Z,58.29
2024-01-19T03:08:19.701Z,53.74
2024-01-19T03:09:19.682Z,55.31
2024-01-19T03:10:19.716Z,57.99
2024-01-19T03:11:19.770Z,55.81
2024-01-19T03:12:19.755Z,52.81
2024-01-19T03:13:19.780Z,53.75
2024-01-19T03:14:19.866Z,56.23
2024-01-19T03:15:19.827Z,54.04
2024-01-19T03:16:19.859Z,57.75
2024-01-19T03:17:19.890Z,56.43
2024-01-19T03:18:20.186Z,55.41
2024-01-19T03:19:19.942Z,55.51
2024-01-19T03:20:20.006Z,54.84
2024-01-19T03:21:19.975Z,52.17
2024-01-19T03:22:19.996Z,52.51
2024-01-19T03:23:20.069Z,57.41
2024-01-19T03:24:20.041Z,56.27
2024-01-19T03:25:20.064Z,55.34
2024-01-19T03:26:20.094Z,57.89
2024-01-19T03:27:20.116Z,54.92
2024-01-19T03:28:20.137Z,57.20
2024-01-19T03:29:20.199Z,53.70
2024-01-19T03:30:20.178Z,55.49
2024-01-19T03:31:20.201Z,53.81
2024-01-19T03:32:20.249Z,56.73
2024-01-19T03:33:20.428Z,55.44
2024-01-19T03:34:20.336Z,54.39
2024-01-19T03:35:20.491Z,53.61
2024-01-19T03:36:20.323Z,53.11
2024-01-19T03:37:20.335Z,56.52
2024-01-19T03:38:20.379Z,57.10
2024-01-19T03:39:20.381Z,57.31
2024-01-19T03:40:20.398Z,52.97
2024-01-19T03:41:20.461Z,55.49
2024-01-19T03:42:20.454Z,57.67
2024-01-19T03:43:20.467Z,57.52
2024-01-19T03:44:20.526Z,53.56
2024-01-19T03:45:20.532Z,56.90
2024-01-19T03:46:20.540Z,56.89
2024-01-19T03:47:20.619Z,57.62
2024-01-19T03:48:20.637Z,51.92
2024-01-19T03:49:20.633Z,57.75
2024-01-19T03:50:20.742Z,55.61
2024-01-19T03:51:20.676Z,58.89
2024-01-19T03:52:20.728Z,51.93
2024-01-19T03:53:20.760Z,61.01
2024-01-19T03:54:20.747Z,56.31
2024-01-19T03:55:20.777Z,57.79
2024-01-19T03:56:20.812Z,58.94
2024-01-19T03:57:20.856Z,57.83
2024-01-19T03:58:20.869Z,57.37
2024-01-19T03:59:20.907Z,53.99
2024-01-19T04:00:20.907Z,58.00
2024-01-19T04:01:20.946Z,53.11
2024-01-19T04:02:21.020Z,56.21
2024-01-19T04:03:21.287Z,59.21
2024-01-19T04:04:21.087Z,56.48
2024-01-19T04:05:21.122Z,55.29
2024-01-19T04:06:21.096Z,50.94
2024-01-19T04:07:21.117Z,53.16
2024-01-19T04:08:21.105Z,57.39
2024-01-19T04:09:21.123Z,54.74
2024-01-19T04:10:21.127Z,52.80
2024-01-19T04:11:21.159Z,53.04
2024-01-19T04:12:21.179Z,54.35
2024-01-19T04:13:21.207Z,57.90
2024-01-19T04:14:21.280Z,56.33
2024-01-19T04:15:21.249Z,54.57
2024-01-19T04:16:21.263Z,54.03
2024-01-19T04:17:21.305Z,50.46
2024-01-19T04:18:21.390Z,58.30
2024-01-19T04:19:21.454Z,54.25
2024-01-19T04:20:21.374Z,53.36
2024-01-19T04:21:28.618Z,50.00
2024-01-19T04:22:28.574Z,50.00
2024-01-19T04:23:28.606Z,50.00
2024-01-19T04:24:28.575Z,50.00
2024-01-19T04:25:28.579Z,50.00
2024-01-19T04:26:28.594Z,49.55
2024-01-19T04:27:28.574Z,53.46
2024-01-19T04:28:28.582Z,53.03
2024-01-19T04:29:28.595Z,51.56
2024-01-19T04:30:28.598Z,55.49
2024-01-19T04:31:35.775Z,50.00
2024-01-19T04:32:35.873Z,50.00
2024-01-19T04:33:35.872Z,50.00
2024-01-19T04:34:35.847Z,50.00
2024-01-19T04:35:35.811Z,50.00
2024-01-19T04:36:35.789Z,51.26
2024-01-19T04:37:35.796Z,52.43
2024-01-19T04:38:35.821Z,53.67
2024-01-19T04:39:35.792Z,50.46
2024-01-19T04:40:35.788Z,55.96
2024-01-19T04:41:35.925Z,51.58
2024-01-19T04:42:35.790Z,57.10
2024-01-19T04:43:35.780Z,54.02
2024-01-19T04:44:35.799Z,57.07
2024-01-19T04:45:35.777Z,54.25
2024-01-19T04:46:35.802Z,55.69
2024-01-19T04:47:35.851Z,52.69
2024-01-19T04:48:35.842Z,52.02
2024-01-19T04:49:35.806Z,50.00
2024-01-19T04:50:35.802Z,53.83
2024-01-19T04:51:35.820Z,52.87
2024-01-19T04:52:36.398Z,50.00
2024-01-19T04:53:35.846Z,56.87
2024-01-19T04:54:35.806Z,52.63
2024-01-19T04:55:35.794Z,52.93
2024-01-19T04:56:35.856Z,57.40
2024-01-19T04:57:35.794Z,56.28
2024-01-19T04:58:35.800Z,57.41
2024-01-19T04:59:35.851Z,56.09
2024-01-19T05:00:35.799Z,56.09
2024-01-19T05:01:35.809Z,55.25
2024-01-19T05:02:35.826Z,56.52
2024-01-19T05:03:35.790Z,54.13
2024-01-19T05:04:35.839Z,51.90
2024-01-19T05:05:35.844Z,56.52
2024-01-19T05:06:36.031Z,59.87
2024-01-19T05:07:35.791Z,55.42
2024-01-19T05:08:35.808Z,55.63
2024-01-19T05:09:35.791Z,55.33
2024-01-19T05:10:35.789Z,55.87
2024-01-19T05:11:35.823Z,59.60
2024-01-19T05:12:35.801Z,56.92
2024-01-19T05:13:35.811Z,51.59
2024-01-19T05:14:35.824Z,58.92
2024-01-19T05:15:35.799Z,54.51
2024-01-19T05:16:35.834Z,56.29
2024-01-19T05:17:35.898Z,58.83
2024-01-19T05:18:35.909Z,58.83
2024-01-19T05:19:35.889Z,57.49
2024-01-19T05:20:35.832Z,53.14
2024-01-19T05:21:35.810Z,63.02
2024-01-19T05:22:35.815Z,57.10
2024-01-19T05:23:35.821Z,61.52
2024-01-19T05:24:35.810Z,56.82
2024-01-19T05:25:35.888Z,54.99
2024-01-19T05:26:35.840Z,59.32
2024-01-19T05:27:35.811Z,53.32
2024-01-19T05:28:35.832Z,61.87
2024-01-19T05:29:35.917Z,59.38
2024-01-19T05:30:35.835Z,54.92
2024-01-19T05:31:35.904Z,54.95
2024-01-19T05:32:35.912Z,57.82
2024-01-19T05:33:37.836Z,53.49
2024-01-19T05:34:35.867Z,53.76
2024-01-19T05:35:35.870Z,54.70
2024-01-19T05:36:35.820Z,54.83
2024-01-19T05:37:35.817Z,56.98
2024-01-19T05:38:35.896Z,55.61
2024-01-19T05:39:35.821Z,54.68
2024-01-19T05:40:35.832Z,51.95
2024-01-19T05:41:35.839Z,55.23
2024-01-19T05:42:35.844Z,55.81
2024-01-19T05:43:35.829Z,57.74
2024-01-19T05:44:35.867Z,53.38
2024-01-19T05:45:35.835Z,58.28
2024-01-19T05:46:35.833Z,56.68
2024-01-19T05:47:35.885Z,56.54
2024-01-19T05:48:35.934Z,58.57
2024-01-19T05:49:35.906Z,58.71
2024-01-19T05:50:35.828Z,58.37
2024-01-19T05:51:35.839Z,57.62
2024-01-19T05:52:35.829Z,58.75
2024-01-19T05:53:35.854Z,59.11
2024-01-19T05:54:35.826Z,56.18
2024-01-19T05:55:35.830Z,55.15
2024-01-19T05:56:35.838Z,61.45
2024-01-19T05:57:35.827Z,54.38
2024-01-19T05:58:35.828Z,57.45
2024-01-19T05:59:35.913Z,57.75
2024-01-19T06:00:35.834Z,55.05
2024-01-19T06:01:35.834Z,54.68
2024-01-19T06:02:35.858Z,57.80
2024-01-19T06:03:35.864Z,56.38
2024-01-19T06:04:35.847Z,55.57
2024-01-19T06:05:35.940Z,54.09
2024-01-19T06:06:35.966Z,58.39
2024-01-19T06:07:35.846Z,58.10
2024-01-19T06:08:35.925Z,57.09
2024-01-19T06:09:35.849Z,57.44
2024-01-19T06:10:35.839Z,56.49
2024-01-19T06:11:35.875Z,54.64
2024-01-19T06:12:35.895Z,55.93
2024-01-19T06:13:35.951Z,56.42
2024-01-19T06:14:36.037Z,55.26
2024-01-19T06:15:36.100Z,52.67
2024-01-19T06:16:36.173Z,55.29
2024-01-19T06:17:36.251Z,55.63
2024-01-19T06:18:36.458Z,55.94
2024-01-19T06:19:36.479Z,55.36
2024-01-19T06:20:36.471Z,56.31
2024-01-19T06:21:36.547Z,58.15
2024-01-19T06:22:36.590Z,58.47
2024-01-19T06:23:36.660Z,56.77
2024-01-19T06:24:36.741Z,55.32
2024-01-19T06:25:36.822Z,54.69
2024-01-19T06:26:36.938Z,52.41
2024-01-19T06:27:36.932Z,51.78
2024-01-19T06:28:37.019Z,53.56
2024-01-19T06:29:37.085Z,51.54
2024-01-19T06:30:37.140Z,50.00
2024-01-19T06:31:37.187Z,52.19
2024-01-19T06:32:37.509Z,52.68
2024-01-19T06:33:38.008Z,52.37
2024-01-19T06:34:37.410Z,50.82
2024-01-19T06:35:38.475Z,52.77
2024-01-19T06:36:37.541Z,54.39
2024-01-19T06:37:37.582Z,51.63
2024-01-19T06:38:37.657Z,53.31
2024-01-19T06:39:37.714Z,53.96
2024-01-19T06:40:37.767Z,52.55
2024-01-19T06:41:37.852Z,52.89
2024-01-19T06:42:37.882Z,57.19
2024-01-19T06:43:37.983Z,63.13
2024-01-19T06:44:38.067Z,71.74
2024-01-19T06:45:38.052Z,85.52
2024-01-19T06:46:38.130Z,90.59
2024-01-19T06:47:38.191Z,95.35
2024-01-19T06:48:38.346Z,100.42
2024-01-19T06:49:38.372Z,107.30
2024-01-19T06:50:38.324Z,112.52
2024-01-19T06:51:38.345Z,116.72
2024-01-19T06:52:38.367Z,123.01
2024-01-19T06:53:38.440Z,127.79
2024-01-19T06:54:38.452Z,130.77
2024-01-19T06:55:38.486Z,136.66
2024-01-19T06:56:38.993Z,138.55
2024-01-19T06:57:38.934Z,143.79
2024-01-19T06:58:38.585Z,143.64
2024-01-19T06:59:38.981Z,149.82
2024-01-19T07:00:38.647Z,152.58
2024-01-19T07:01:38.676Z,155.94
2024-01-19T07:02:38.715Z,156.45
2024-01-19T07:03:38.752Z,161.99
2024-01-19T07:04:38.792Z,177.95
2024-01-19T07:05:38.895Z,185.42
2024-01-19T07:06:39.024Z,185.15
2024-01-19T07:07:38.869Z,187.43
2024-01-19T07:08:38.935Z,192.34
2024-01-19T07:09:38.951Z,193.09
2024-01-19T07:10:38.981Z,196.29
2024-01-19T07:11:39.021Z,196.59
2024-01-19T07:12:38.995Z,197.88
2024-01-19T07:13:39.026Z,199.50
2024-01-19T07:14:39.102Z,197.84
2024-01-19T07:15:39.056Z,199.63
2024-01-19T07:16:39.088Z,200.00
2024-01-19T07:17:39.280Z,197.80
2024-01-19T07:18:39.394Z,199.06
2024-01-19T07:19:39.151Z,198.86
2024-01-19T07:20:39.161Z,197.67
2024-01-19T07:21:39.142Z,198.93
2024-01-19T07:22:39.153Z,197.13
2024-01-19T07:23:39.283Z,200.00
2024-01-19T07:24:39.180Z,198.55
2024-01-19T07:25:39.184Z,200.00
2024-01-19T07:26:39.212Z,198.67
2024-01-19T07:27:39.206Z,197.67
2024-01-19T07:28:39.240Z,199.46
2024-01-19T07:29:40.767Z,200.00
2024-01-19T07:30:39.349Z,200.30
2024-01-19T07:31:39.362Z,198.78
2024-01-19T07:32:51.913Z,199.70
2024-01-19T07:33:40.512Z,199.77
2024-01-19T07:34:39.497Z,201.84
2024-01-19T07:35:39.454Z,204.86
2024-01-19T07:36:39.525Z,209.46
2024-01-19T07:37:39.385Z,215.41
2024-01-19T07:38:39.989Z,201.02
2024-01-19T07:39:39.382Z,194.61
2024-01-19T07:40:39.421Z,194.67
2024-01-19T07:41:39.474Z,190.22
2024-01-19T07:42:39.392Z,186.72
2024-01-19T07:43:39.391Z,183.95
2024-01-19T07:44:39.454Z,182.26
2024-01-19T07:45:39.408Z,179.98
2024-01-19T07:46:39.392Z,178.05
2024-01-19T07:47:39.475Z,175.62
2024-01-19T07:48:39.459Z,174.05
2024-01-19T07:49:39.458Z,173.47
2024-01-19T07:50:39.425Z,175.22
2024-01-19T07:51:39.402Z,172.97
2024-01-19T07:52:39.403Z,172.29
2024-01-19T07:53:39.453Z,169.86
2024-01-19T07:54:39.425Z,168.31
2024-01-19T07:55:39.519Z,165.64
2024-01-19T07:56:39.986Z,165.51
2024-01-19T07:57:39.504Z,163.00
2024-01-19T07:58:39.499Z,160.68
2024-01-19T07:59:39.523Z,161.92
2024-01-19T08:00:39.589Z,160.34
2024-01-19T08:01:39.560Z,162.23
2024-01-19T08:02:39.606Z,160.72
2024-01-19T08:03:39.606Z,161.06
2024-01-19T08:04:39.554Z,161.45
2024-01-19T08:05:39.649Z,161.16
2024-01-19T08:06:39.646Z,161.55
2024-01-19T08:07:39.558Z,162.15
2024-01-19T08:08:39.667Z,162.88
2024-01-19T08:09:39.587Z,162.66
2024-01-19T08:10:39.625Z,162.01
2024-01-19T08:11:39.690Z,165.10
2024-01-19T08:12:39.673Z,164.36
2024-01-19T08:13:39.710Z,165.30
2024-01-19T08:14:39.770Z,166.34
2024-01-19T08:15:39.793Z,166.81
2024-01-19T08:16:39.992Z,166.89
2024-01-19T08:17:40.016Z,167.71
2024-01-19T08:18:40.090Z,167.71
2024-01-19T08:19:40.040Z,168.46
2024-01-19T08:20:40.139Z,169.65
2024-01-19T08:21:40.510Z,171.20
2024-01-19T08:22:40.286Z,172.08
2024-01-19T08:23:40.374Z,174.39
2024-01-19T08:24:40.394Z,174.62
2024-01-19T08:25:40.479Z,174.29
2024-01-19T08:26:40.570Z,176.32
2024-01-19T08:27:40.593Z,177.46
2024-01-19T08:28:40.692Z,178.32
2024-01-19T08:29:40.839Z,179.20
2024-01-19T08:30:40.820Z,179.15
2024-01-19T08:31:40.995Z,180.09
2024-01-19T08:32:41.031Z,182.55
2024-01-19T08:33:41.055Z,179.78
2024-01-19T08:34:41.142Z,181.34
2024-01-19T08:35:41.206Z,181.59
2024-01-19T08:36:41.213Z,181.79
2024-01-19T08:37:41.272Z,181.43
2024-01-19T08:38:41.366Z,181.60
2024-01-19T08:39:41.447Z,180.76
2024-01-19T08:40:41.481Z,179.35
2024-01-19T08:41:41.999Z,180.16
2024-01-19T08:42:41.634Z,180.19
2024-01-19T08:43:41.699Z,178.85
2024-01-19T08:44:41.758Z,180.35
2024-01-19T08:45:41.902Z,180.62
2024-01-19T08:46:41.867Z,180.26
2024-01-19T08:47:41.973Z,179.66
2024-01-19T08:48:42.079Z,179.74
2024-01-19T08:49:42.125Z,179.92
2024-01-19T08:50:42.117Z,181.49
2024-01-19T08:51:43.868Z,180.64
2024-01-19T08:52:42.158Z,182.47
2024-01-19T08:53:42.193Z,182.54
2024-01-19T08:54:42.148Z,182.75
2024-01-19T08:55:42.160Z,183.45
2024-01-19T08:56:49.277Z,183.67
2024-01-19T08:57:43.191Z,183.77
2024-01-19T08:58:42.150Z,184.25
2024-01-19T08:59:42.232Z,184.91
2024-01-19T09:00:42.248Z,186.93
2024-01-19T09:01:42.488Z,188.68
2024-01-19T09:02:50.119Z,188.02
2024-01-19T09:03:43.251Z,188.14
2024-01-19T09:04:42.335Z,188.43
2024-01-19T09:05:42.295Z,188.55
2024-01-19T09:06:45.558Z,189.38
2024-01-19T09:07:42.268Z,188.15
2024-01-19T09:08:42.214Z,188.19
2024-01-19T09:09:42.167Z,188.32
2024-01-19T09:10:42.173Z,186.45
2024-01-19T09:11:42.231Z,187.73
2024-01-19T09:12:42.186Z,185.74
2024-01-19T09:13:42.186Z,184.57
2024-01-19T09:14:43.086Z,184.64
2024-01-19T09:15:42.274Z,183.49
2024-01-19T09:16:42.180Z,183.93
2024-01-19T09:17:42.262Z,183.62
2024-01-19T09:18:42.380Z,182.71
2024-01-19T09:19:42.235Z,182.25
2024-01-19T09:20:42.191Z,180.58
2024-01-19T09:21:42.183Z,180.89
2024-01-19T09:22:42.218Z,181.72
2024-01-19T09:23:42.210Z,180.87
2024-01-19T09:24:44.537Z,180.43
2024-01-19T09:25:42.209Z,180.49
2024-01-19T09:26:42.560Z,179.94
2024-01-19T09:27:42.190Z,180.50
2024-01-19T09:28:42.214Z,179.63
2024-01-19T09:29:42.250Z,179.98
2024-01-19T09:30:42.201Z,178.14
2024-01-19T09:31:42.226Z,178.72
2024-01-19T09:32:42.343Z,177.90
2024-01-19T09:33:42.285Z,175.03
2024-01-19T09:34:42.226Z,177.54
2024-01-19T09:35:42.204Z,178.36
2024-01-19T09:36:42.235Z,177.36
2024-01-19T09:37:42.256Z,175.68
2024-01-19T09:38:42.212Z,174.71
2024-01-19T09:39:42.207Z,174.89
2024-01-19T09:40:42.497Z,178.11
2024-01-19T09:41:42.225Z,176.03
2024-01-19T09:42:42.198Z,173.37
2024-01-19T09:43:42.244Z,173.29
2024-01-19T09:44:42.231Z,175.45
2024-01-19T09:45:42.533Z,173.14
2024-01-19T09:46:42.220Z,174.43
2024-01-19T09:47:42.287Z,174.17
2024-01-19T09:48:42.404Z,174.17
2024-01-19T09:49:42.201Z,176.50
2024-01-19T09:50:42.244Z,177.03
2024-01-19T09:51:42.493Z,178.60
2024-01-19T09:52:42.214Z,178.91
2024-01-19T09:53:42.250Z,179.25
2024-01-19T09:54:42.232Z,183.27
2024-01-19T09:55:43.027Z,181.06
2024-01-19T09:56:42.249Z,185.08
2024-01-19T09:57:42.216Z,186.17
2024-01-19T09:58:42.218Z,185.57
2024-01-19T09:59:42.254Z,188.75
2024-01-19T10:00:42.255Z,190.53
2024-01-19T10:01:42.221Z,191.10
2024-01-19T10:02:42.284Z,193.77
2024-01-19T10:03:42.228Z,196.06
2024-01-19T10:04:42.293Z,198.14
2024-01-19T10:05:42.294Z,198.15
2024-01-19T10:06:42.298Z,199.57
2024-01-19T10:07:42.221Z,200.43
2024-01-19T10:08:42.330Z,198.01
2024-01-19T10:09:42.311Z,198.82
2024-01-19T10:10:42.244Z,198.05
2024-01-19T10:11:42.248Z,199.97
2024-01-19T10:12:42.228Z,200.00
2024-01-19T10:13:42.290Z,198.45
2024-01-19T10:14:43.246Z,198.63
2024-01-19T10:15:42.520Z,199.23
2024-01-19T10:16:42.573Z,202.04
2024-01-19T10:17:42.331Z,205.40
2024-01-19T10:18:42.596Z,211.63
2024-01-19T10:19:42.325Z,199.56
2024-01-19T10:20:42.295Z,200.00
2024-01-19T10:21:42.513Z,200.00
2024-01-19T10:22:42.234Z,199.07
2024-01-19T10:23:42.258Z,200.05
2024-01-19T10:24:42.286Z,199.57
2024-01-19T10:25:42.255Z,199.77
2024-01-19T10:26:42.269Z,200.00
2024-01-19T10:27:42.247Z,199.58
2024-01-19T10:28:42.245Z,199.43
2024-01-19T10:29:42.297Z,198.73
2024-01-19T10:30:42.250Z,199.43
2024-01-19T10:31:42.616Z,199.88
2024-01-19T10:32:42.467Z,198.42
2024-01-19T10:33:42.372Z,197.76
2024-01-19T10:34:42.326Z,199.52
2024-01-19T10:35:42.334Z,198.57
2024-01-19T10:36:42.546Z,199.88
2024-01-19T10:37:42.327Z,200.20
2024-01-19T10:38:42.399Z,200.00
2024-01-19T10:39:42.389Z,200.74
2024-01-19T10:40:42.418Z,200.00
2024-01-19T10:41:42.575Z,200.00
2024-01-19T10:42:42.556Z,200.00
2024-01-19T10:43:42.401Z,200.03
2024-01-19T10:44:42.457Z,199.86
2024-01-19T10:45:42.439Z,199.96
2024-01-19T10:46:42.460Z,199.38
2024-01-19T10:47:42.600Z,199.31
2024-01-19T10:48:42.642Z,199.14
2024-01-19T10:49:42.580Z,198.75
2024-01-19T10:50:42.546Z,199.84
2024-01-19T10:51:42.587Z,199.81
2024-01-19T10:52:42.595Z,199.29
2024-01-19T10:53:42.603Z,199.77
2024-01-19T10:54:42.625Z,199.11
2024-01-19T10:55:42.667Z,199.53
2024-01-19T10:56:42.673Z,199.80
2024-01-19T10:57:42.679Z,199.15
2024-01-19T10:58:42.724Z,199.24
2024-01-19T10:59:42.801Z,198.08
2024-01-19T11:00:42.778Z,198.49
2024-01-19T11:01:42.860Z,196.96
2024-01-19T11:02:42.816Z,196.89
2024-01-19T11:03:42.891Z,196.03
2024-01-19T11:04:42.876Z,195.65
2024-01-19T11:05:42.999Z,195.45
2024-01-19T11:06:43.148Z,194.90
2024-01-19T11:07:42.982Z,193.38
2024-01-19T11:08:43.047Z,192.93
2024-01-19T11:09:43.036Z,193.05
2024-01-19T11:10:44.494Z,192.40
2024-01-19T11:11:43.193Z,193.61
2024-01-19T11:12:43.192Z,193.44
2024-01-19T11:13:43.226Z,193.44
2024-01-19T11:14:43.292Z,193.71
2024-01-19T11:15:43.272Z,193.72
2024-01-19T11:16:43.308Z,193.92
2024-01-19T11:17:43.482Z,194.12
2024-01-19T11:18:43.536Z,193.88
2024-01-19T11:19:43.426Z,195.56
2024-01-19T11:20:43.450Z,197.23
2024-01-19T11:21:43.451Z,197.63
2024-01-19T11:22:44.878Z,197.72
2024-01-19T11:23:43.523Z,197.84
2024-01-19T11:24:43.542Z,198.30
2024-01-19T11:25:43.567Z,199.10
2024-01-19T11:26:43.625Z,198.53
2024-01-19T11:27:43.630Z,198.57
2024-01-19T11:28:43.636Z,198.76
2024-01-19T11:29:43.676Z,189.27
2024-01-19T11:30:43.697Z,181.33
2024-01-19T11:31:44.073Z,176.45
2024-01-19T11:32:43.970Z,169.27
2024-01-19T11:33:44.057Z,162.79
2024-01-19T11:34:44.064Z,157.36
2024-01-19T11:35:43.944Z,148.54
2024-01-19T11:36:43.985Z,140.32
2024-01-19T11:37:44.074Z,131.81
2024-01-19T11:38:44.119Z,125.45
2024-01-19T11:39:44.005Z,119.32
2024-01-19T11:40:44.081Z,114.20
2024-01-19T11:41:44.179Z,108.03
2024-01-19T11:42:44.038Z,101.96
2024-01-19T11:43:44.060Z,97.23
2024-01-19T11:44:44.410Z,92.65
2024-01-19T11:45:44.126Z,86.14
2024-01-19T11:46:44.235Z,82.07
2024-01-19T11:47:44.340Z,76.77
2024-01-19T11:48:44.402Z,71.97
2024-01-19T11:49:44.444Z,68.72
2024-01-19T11:50:44.370Z,66.29
2024-01-19T11:51:44.326Z,65.29
2024-01-19T11:52:44.342Z,63.35
2024-01-19T11:53:44.338Z,61.99
2024-01-19T11:54:44.364Z,60.92
2024-01-19T11:55:44.519Z,60.58
2024-01-19T11:56:44.677Z,61.32
2024-01-19T11:57:44.545Z,62.02
2024-01-19T11:58:44.602Z,62.08
2024-01-19T11:59:44.696Z,61.98
2024-01-19T12:00:44.722Z,63.57
2024-01-19T12:01:44.750Z,64.75
2024-01-19T12:02:44.824Z,64.82
2024-01-19T12:03:44.796Z,63.98
2024-01-19T12:04:44.841Z,61.96
2024-01-19T12:05:44.968Z,63.30
2024-01-19T12:06:44.973Z,64.39
2024-01-19T12:07:44.968Z,65.76
2024-01-19T12:08:46.302Z,65.96
2024-01-19T12:09:44.894Z,67.71
2024-01-19T12:10:44.893Z,69.31
2024-01-19T12:11:45.002Z,69.47
2024-01-19T12:12:44.920Z,70.83
2024-01-19T12:13:51.549Z,71.60
2024-01-19T12:14:46.052Z,71.70
2024-01-19T12:15:45.085Z,71.85
2024-01-19T12:16:45.067Z,73.10
2024-01-19T12:17:44.940Z,74.94
2024-01-19T12:18:44.961Z,78.40
2024-01-19T12:19:44.948Z,79.46
2024-01-19T12:20:44.927Z,80.77
2024-01-19T12:21:44.955Z,82.67
2024-01-19T12:22:44.960Z,83.00
2024-01-19T12:23:44.934Z,84.78
2024-01-19T12:24:44.929Z,85.89
2024-01-19T12:25:44.972Z,84.13
2024-01-19T12:26:44.944Z,85.29
2024-01-19T12:27:44.970Z,84.67
2024-01-19T12:28:44.974Z,85.34
2024-01-19T12:29:44.980Z,84.82
2024-01-19T12:30:44.964Z,86.90
2024-01-19T12:31:44.986Z,85.91
2024-01-19T12:32:45.029Z,85.19
2024-01-19T12:33:45.054Z,86.72
2024-01-19T12:34:44.997Z,87.75
2024-01-19T12:35:44.985Z,86.34
2024-01-19T12:36:44.997Z,86.78
2024-01-19T12:37:45.093Z,87.03
2024-01-19T12:38:45.009Z,87.70
2024-01-19T12:39:45.011Z,86.55
2024-01-19T12:40:45.042Z,86.64
2024-01-19T12:41:45.108Z,86.59
2024-01-19T12:42:45.040Z,87.57
2024-01-19T12:43:45.149Z,87.02